createdAt,value
2017-12-02T00:02:01.464Z,72.30
2017-12-02T00:04:27.708Z,72.30
2017-12-02T00:06:53.966Z,71.90
2017-12-02T00:09:20.209Z,72.00
2017-12-02T00:11:47.356Z,72.10
2017-12-02T00:14:13.628Z,71.80
2017-12-02T00:16:39.873Z,75.30
2017-12-02T00:19:06.298Z,74.40
2017-12-02T00:21:32.847Z,75.90
2017-12-02T00:23:59.138Z,75.70
2017-12-02T00:26:26.180Z,75.20
2017-12-02T00:28:52.441Z,74.70
2017-12-02T00:31:18.880Z,74.90
2017-12-02T00:33:45.953Z,75.80
2017-12-02T00:36:12.205Z,75.80
2017-12-02T00:38:38.444Z,75.50
2017-12-02T00:41:05.841Z,75.40
2017-12-02T00:43:32.150Z,75.60
2017-12-02T00:45:58.387Z,78.60
2017-12-02T00:48:24.618Z,80.90
2017-12-02T00:50:50.914Z,81.10
2017-12-02T00:53:17.399Z,78.60
2017-12-02T00:55:43.682Z,77.70
2017-12-02T00:58:09.914Z,76.50
2017-12-02T01:00:36.177Z,74.70
2017-12-02T01:03:02.439Z,78.00
2017-12-02T01:05:28.689Z,77.20
2017-12-02T01:07:55.749Z,76.10
2017-12-02T01:10:23.293Z,75.10
2017-12-02T01:12:49.677Z,75.60
2017-12-02T01:15:15.922Z,75.90
2017-12-02T01:17:42.177Z,74.50
2017-12-02T01:20:08.530Z,74.40
2017-12-02T01:22:35.769Z,73.40
2017-12-02T01:25:02.054Z,73.30
2017-12-02T01:27:28.322Z,74.00
2017-12-02T01:29:54.565Z,74.70
2017-12-02T01:32:20.810Z,74.00
2017-12-02T01:34:48.470Z,73.80
2017-12-02T01:37:14.691Z,72.10
2017-12-02T01:39:41.015Z,73.80
2017-12-02T01:42:07.242Z,73.20
2017-12-02T01:44:33.574Z,72.80
2017-12-02T01:46:59.815Z,72.50
2017-12-02T01:49:26.034Z,72.80
2017-12-02T01:51:52.263Z,75.80
2017-12-02T01:54:22.332Z,77.10
2017-12-02T01:56:48.614Z,77.70
2017-12-02T01:59:14.837Z,77.60
2017-12-02T02:01:41.274Z,76.40
2017-12-02T02:04:07.526Z,76.70
2017-12-02T02:06:33.770Z,76.10
2017-12-02T02:08:59.992Z,76.90
2017-12-02T02:11:26.947Z,77.10
2017-12-02T02:13:53.906Z,78.10
2017-12-02T02:16:20.194Z,78.00
2017-12-02T02:18:47.150Z,76.80
2017-12-02T02:21:13.526Z,76.90
2017-12-02T02:23:39.837Z,76.50
2017-12-02T02:26:06.068Z,75.60
2017-12-02T02:28:32.345Z,78.20
2017-12-02T02:30:58.521Z,79.30
2017-12-02T02:33:24.888Z,82.20
2017-12-02T02:35:51.159Z,81.00
2017-12-02T02:38:17.449Z,82.00
2017-12-02T02:40:43.675Z,82.50
2017-12-02T02:43:09.924Z,84.60
2017-12-02T02:45:36.177Z,84.90
2017-12-02T02:48:02.516Z,85.10
2017-12-02T02:50:28.734Z,86.50
2017-12-02T02:52:55.849Z,87.10
2017-12-02T02:55:22.047Z,87.00
2017-12-02T02:57:49.861Z,87.80
2017-12-02T03:00:16.106Z,88.60
2017-12-02T03:02:42.480Z,88.40
2017-12-02T03:05:08.786Z,88.10
2017-12-02T03:07:35.098Z,88.70
2017-12-02T03:10:01.346Z,89.70
2017-12-02T03:12:29.502Z,88.60
2017-12-02T03:14:56.154Z,89.50
2017-12-02T03:17:22.408Z,90.20
2017-12-02T03:19:48.647Z,90.10
2017-12-02T03:22:14.913Z,90.20
2017-12-02T03:24:41.154Z,90.50
2017-12-02T03:27:07.419Z,90.20
2017-12-02T03:29:33.657Z,88.70
2017-12-02T03:32:00.506Z,88.70
2017-12-02T03:34:26.750Z,89.40
2017-12-02T03:36:52.991Z,90.00
2017-12-02T03:39:19.340Z,90.00
2017-12-02T03:41:45.572Z,90.30
2017-12-02T03:44:11.814Z,90.40
2017-12-02T03:46:38.077Z,90.10
2017-12-02T03:49:04.296Z,90.10
2017-12-02T03:51:30.574Z,90.00
2017-12-02T03:53:56.818Z,90.40
2017-12-02T03:56:23.330Z,90.00
2017-12-02T03:58:49.589Z,90.00
2017-12-02T04:01:15.817Z,90.40
2017-12-02T04:03:42.086Z,90.30
2017-12-02T04:06:08.350Z,90.50
2017-12-02T04:08:34.622Z,90.70
2017-12-02T04:11:00.833Z,90.80
2017-12-02T04:13:27.817Z,89.90
2017-12-02T04:15:54.849Z,90.40
2017-12-02T04:18:21.821Z,90.00
2017-12-02T04:20:48.075Z,89.90
2017-12-02T04:23:14.323Z,88.70
2017-12-02T04:25:40.724Z,88.00
2017-12-02T04:28:07.731Z,89.60
2017-12-02T04:30:33.975Z,89.60
2017-12-02T04:33:00.222Z,87.60
2017-12-02T04:35:26.509Z,88.90
2017-12-02T04:37:52.765Z,87.10
2017-12-02T04:40:19.021Z,88.10
2017-12-02T04:42:45.261Z,89.30
2017-12-02T04:45:11.564Z,89.60
2017-12-02T04:47:37.831Z,90.00
2017-12-02T04:50:04.064Z,90.30
2017-12-02T04:52:30.915Z,90.70
2017-12-02T04:54:57.874Z,90.70
2017-12-02T04:57:24.118Z,90.80
2017-12-02T04:59:50.430Z,90.80
2017-12-02T05:02:17.422Z,90.60
2017-12-02T05:04:43.681Z,90.80
2017-12-02T05:07:09.910Z,90.50
2017-12-02T05:09:36.272Z,90.80
2017-12-02T05:12:02.590Z,90.80
2017-12-02T05:14:28.838Z,91.00
2017-12-02T05:16:55.098Z,91.00
2017-12-02T05:19:21.342Z,91.20
2017-12-02T05:21:47.533Z,91.20
2017-12-02T05:24:13.862Z,90.90
2017-12-02T05:26:40.166Z,91.00
2017-12-02T05:29:06.453Z,91.10
2017-12-02T05:31:33.453Z,90.50
2017-12-02T05:33:59.726Z,90.30
2017-12-02T05:36:25.973Z,90.60
2017-12-02T05:38:52.189Z,91.30
2017-12-02T05:41:18.474Z,90.80
2017-12-02T05:43:44.760Z,90.50
2017-12-02T05:46:11.019Z,90.40
2017-12-02T05:48:37.304Z,90.80
2017-12-02T05:51:03.557Z,90.40
2017-12-02T05:53:30.554Z,90.20
2017-12-02T05:55:56.786Z,89.90
2017-12-02T05:58:23.103Z,89.60
2017-12-02T06:00:49.368Z,90.20
2017-12-02T06:03:15.681Z,90.70
2017-12-02T06:05:41.901Z,90.30
2017-12-02T06:08:08.960Z,90.10
2017-12-02T06:10:36.901Z,90.10
2017-12-02T06:13:03.238Z,90.20
2017-12-02T06:15:30.229Z,90.50
2017-12-02T06:17:56.454Z,90.50
2017-12-02T06:20:22.657Z,91.20
2017-12-02T06:22:48.905Z,90.40
2017-12-02T06:25:15.188Z,89.40
2017-12-02T06:27:41.525Z,85.80
2017-12-02T06:30:07.785Z,87.30
2017-12-02T06:32:34.108Z,87.50
2017-12-02T06:35:00.333Z,88.50
2017-12-02T06:37:26.586Z,90.00
2017-12-02T06:39:52.807Z,90.50
2017-12-02T06:42:19.014Z,90.90
2017-12-02T06:44:46.043Z,90.70
2017-12-02T06:47:12.290Z,90.70
2017-12-02T06:49:38.575Z,90.50
2017-12-02T06:52:05.517Z,90.20
2017-12-02T06:54:32.562Z,87.50
2017-12-02T06:56:58.814Z,87.50
2017-12-02T06:59:25.006Z,86.10
2017-12-02T07:01:51.746Z,84.90
2017-12-02T07:04:18.002Z,82.60
2017-12-02T07:06:44.233Z,82.90
2017-12-02T07:09:10.820Z,86.00
2017-12-02T07:11:38.261Z,87.50
2017-12-02T07:14:04.533Z,87.10
2017-12-02T07:16:31.538Z,89.30
2017-12-02T07:18:57.837Z,88.70
2017-12-02T07:21:25.121Z,90.00
2017-12-02T07:23:51.389Z,90.60
2017-12-02T07:26:17.708Z,90.90
2017-12-02T07:28:43.997Z,91.10
2017-12-02T07:31:10.294Z,91.20
2017-12-02T07:33:36.571Z,91.40
2017-12-02T07:36:02.845Z,91.00
2017-12-02T07:38:29.137Z,91.10
2017-12-02T07:40:55.450Z,90.90
2017-12-02T07:43:21.706Z,91.40
2017-12-02T07:45:49.055Z,90.80
2017-12-02T07:48:15.294Z,90.90
2017-12-02T07:50:42.350Z,91.10
2017-12-02T07:53:08.600Z,91.10
2017-12-02T07:55:34.819Z,91.20
2017-12-02T07:58:01.833Z,90.80
2017-12-02T08:00:28.103Z,91.00
2017-12-02T08:02:54.617Z,90.20
2017-12-02T08:05:21.558Z,88.30
2017-12-02T08:07:47.765Z,88.10
2017-12-02T08:10:13.990Z,87.50
2017-12-02T08:12:41.031Z,84.90
2017-12-02T08:15:08.645Z,84.80
2017-12-02T08:17:34.941Z,83.80
2017-12-02T08:20:01.195Z,84.50
2017-12-02T08:22:27.421Z,82.60
2017-12-02T08:24:53.666Z,81.80
2017-12-02T08:27:19.918Z,79.80
2017-12-02T08:29:46.281Z,82.90
2017-12-02T08:32:12.540Z,83.80
2017-12-02T08:34:39.618Z,84.30
2017-12-02T08:37:06.553Z,83.60
2017-12-02T08:39:32.723Z,83.30
2017-12-02T08:41:58.961Z,82.50
2017-12-02T08:44:25.240Z,81.70
2017-12-02T08:46:51.477Z,81.70
2017-12-02T08:49:18.565Z,82.20
2017-12-02T08:51:44.802Z,82.20
2017-12-02T08:54:11.045Z,85.60
2017-12-02T08:56:37.295Z,84.50
2017-12-02T08:59:03.589Z,87.30
2017-12-02T09:01:29.827Z,85.00
2017-12-02T09:03:56.084Z,84.90
2017-12-02T09:06:23.440Z,82.00
2017-12-02T09:08:49.664Z,81.90
2017-12-02T09:11:15.999Z,80.80
2017-12-02T09:13:43.290Z,80.70
2017-12-02T09:16:09.540Z,80.10
2017-12-02T09:18:35.812Z,83.50
2017-12-02T09:21:02.050Z,82.40
2017-12-02T09:23:28.900Z,81.80
2017-12-02T09:25:55.130Z,80.40
2017-12-02T09:28:22.142Z,83.80
2017-12-02T09:30:48.422Z,83.70
2017-12-02T09:33:14.641Z,81.70
2017-12-02T09:35:41.326Z,82.60
2017-12-02T09:38:07.578Z,82.80
2017-12-02T09:40:33.797Z,82.00
2017-12-02T09:43:00.525Z,82.40
2017-12-02T09:45:26.768Z,83.60
2017-12-02T09:47:53.141Z,83.30
2017-12-02T09:50:20.300Z,82.90
2017-12-02T09:52:46.571Z,82.90
2017-12-02T09:55:12.789Z,82.10
2017-12-02T09:57:39.016Z,81.70
2017-12-02T10:00:05.301Z,80.40
2017-12-02T10:02:32.449Z,82.50
2017-12-02T10:04:58.703Z,81.70
2017-12-02T10:07:24.941Z,82.70
2017-12-02T10:09:51.173Z,84.30
2017-12-02T10:12:18.165Z,87.10
2017-12-02T10:14:44.410Z,87.20
2017-12-02T10:17:10.697Z,87.10
2017-12-02T10:19:37.015Z,87.20
2017-12-02T10:22:03.269Z,86.50
2017-12-02T10:24:29.530Z,84.50
2017-12-02T10:26:55.874Z,82.50
2017-12-02T10:29:22.093Z,80.80
2017-12-02T10:31:48.370Z,81.30
2017-12-02T10:34:18.222Z,81.00
2017-12-02T10:36:44.462Z,81.00
2017-12-02T10:39:10.821Z,82.80
2017-12-02T10:41:37.420Z,84.10
2017-12-02T10:44:03.753Z,82.90
2017-12-02T10:46:30.745Z,84.60
2017-12-02T10:48:57.118Z,85.00
2017-12-02T10:51:25.586Z,83.70
2017-12-02T10:53:51.838Z,83.70
2017-12-02T10:56:18.098Z,83.00
2017-12-02T10:58:44.321Z,83.00
2017-12-02T11:01:10.570Z,80.50
2017-12-02T11:03:37.601Z,80.10
2017-12-02T11:06:04.594Z,79.00
2017-12-02T11:08:30.882Z,79.00
2017-12-02T11:10:57.183Z,75.90
2017-12-02T11:13:23.466Z,76.90
2017-12-02T11:15:49.701Z,74.90
2017-12-02T11:18:16.081Z,74.10
2017-12-02T11:20:44.353Z,74.70
2017-12-02T11:23:11.370Z,72.80
2017-12-02T11:25:37.677Z,72.70
2017-12-02T11:28:03.935Z,73.80
2017-12-02T11:30:30.309Z,78.30
2017-12-02T11:32:56.572Z,79.60
2017-12-02T11:35:26.053Z,80.30
2017-12-02T11:37:52.353Z,78.50
2017-12-02T11:40:18.664Z,75.70
2017-12-02T11:42:44.948Z,75.60
2017-12-02T11:45:11.192Z,77.20
2017-12-02T11:47:37.554Z,78.80
2017-12-02T11:50:03.793Z,80.30
2017-12-02T11:52:30.784Z,81.20
2017-12-02T11:54:57.747Z,81.00
2017-12-02T11:57:24.878Z,78.60
2017-12-02T11:59:51.217Z,78.60
2017-12-02T12:02:17.474Z,78.50
2017-12-02T12:04:43.690Z,75.60
2017-12-02T12:07:09.943Z,75.60
2017-12-02T12:09:36.069Z,73.10
2017-12-02T12:12:02.149Z,73.30
2017-12-02T12:14:32.044Z,73.20
2017-12-02T12:16:58.279Z,72.70
2017-12-02T12:19:25.611Z,72.60
2017-12-02T12:21:53.878Z,72.00
2017-12-02T12:24:20.070Z,73.50
2017-12-02T12:26:46.297Z,71.70
2017-12-02T12:29:12.548Z,69.40
2017-12-02T12:31:39.497Z,70.70
2017-12-02T12:34:06.462Z,73.90
2017-12-02T12:36:32.528Z,73.80
2017-12-02T12:39:01.819Z,74.40
2017-12-02T12:41:28.353Z,75.00
2017-12-02T12:43:54.752Z,74.20
2017-12-02T12:46:22.906Z,73.40
2017-12-02T12:48:49.202Z,75.40
2017-12-02T12:51:15.433Z,74.00
2017-12-02T12:53:41.758Z,74.20
2017-12-02T12:56:07.813Z,73.40
2017-12-02T12:58:33.855Z,74.00
2017-12-02T13:01:00.669Z,73.40
2017-12-02T13:03:27.435Z,71.90
2017-12-02T13:05:53.576Z,71.90
2017-12-02T13:08:19.669Z,70.50
2017-12-02T13:10:45.718Z,69.80
2017-12-02T13:13:11.741Z,68.90
2017-12-02T13:15:38.515Z,69.60
2017-12-02T13:18:04.778Z,69.50
2017-12-02T13:20:30.972Z,70.50
2017-12-02T13:22:57.085Z,70.90
2017-12-02T13:25:23.332Z,72.10
2017-12-02T13:27:49.576Z,72.00
2017-12-02T13:30:16.495Z,71.50
2017-12-02T13:32:42.641Z,71.50
2017-12-02T13:35:08.892Z,71.60
2017-12-02T13:37:35.626Z,71.00
2017-12-02T13:40:02.555Z,72.00
2017-12-02T13:42:28.647Z,73.50
2017-12-02T13:44:54.705Z,72.30
2017-12-02T13:47:21.852Z,72.10
2017-12-02T13:49:48.692Z,71.30
2017-12-02T13:52:14.722Z,71.20
2017-12-02T13:54:40.784Z,72.20
2017-12-02T13:57:07.219Z,70.20
2017-12-02T13:59:34.078Z,71.20
2017-12-02T14:02:00.089Z,71.10
2017-12-02T14:04:26.125Z,71.10
2017-12-02T14:06:52.232Z,71.50
2017-12-02T14:09:18.315Z,70.10
2017-12-02T14:11:44.345Z,71.10
2017-12-02T14:14:10.418Z,71.00
2017-12-02T14:16:37.358Z,71.40
2017-12-02T14:19:03.586Z,70.70
2017-12-02T14:21:29.734Z,70.00
2017-12-02T14:23:55.893Z,69.80
2017-12-02T14:26:22.748Z,69.30
2017-12-02T14:28:49.601Z,72.30
2017-12-02T14:31:16.406Z,71.90
2017-12-02T14:33:43.852Z,72.00
2017-12-02T14:36:10.403Z,72.20
2017-12-02T14:38:36.467Z,72.20
2017-12-02T14:41:02.515Z,71.30
2017-12-02T14:43:28.534Z,70.80
2017-12-02T14:45:55.070Z,71.50
2017-12-02T14:48:21.266Z,71.80
2017-12-02T14:50:48.118Z,72.10
2017-12-02T14:53:14.237Z,72.00
2017-12-02T14:55:42.200Z,71.20
2017-12-02T14:58:08.244Z,71.30
2017-12-02T15:00:36.061Z,73.10
2017-12-02T15:03:02.949Z,71.60
2017-12-02T15:05:29.909Z,72.20
2017-12-02T15:07:56.046Z,73.00
2017-12-02T15:10:22.101Z,72.40
2017-12-02T15:12:48.145Z,73.20
2017-12-02T15:15:14.222Z,73.60
2017-12-02T15:17:40.311Z,74.30
2017-12-02T15:20:06.520Z,74.80
2017-12-02T15:22:32.570Z,77.90
2017-12-02T15:24:58.610Z,79.10
2017-12-02T15:27:25.218Z,78.40
2017-12-02T15:29:51.996Z,76.80
2017-12-02T15:32:20.001Z,76.80
2017-12-02T15:34:46.085Z,74.10
2017-12-02T15:37:12.941Z,75.00
2017-12-02T15:39:39.101Z,74.90
2017-12-02T15:42:05.180Z,74.00
2017-12-02T15:44:31.458Z,73.50
2017-12-02T15:46:57.517Z,73.90
2017-12-02T15:49:24.413Z,73.80
2017-12-02T15:51:50.475Z,73.80
2017-12-02T15:54:16.698Z,74.40
2017-12-02T15:56:42.857Z,73.50
2017-12-02T15:59:08.937Z,73.40
2017-12-02T16:01:35.177Z,73.50
2017-12-02T16:04:01.240Z,71.70
2017-12-02T16:06:27.342Z,71.40
2017-12-02T16:08:53.503Z,71.40
2017-12-02T16:11:19.603Z,71.30
2017-12-02T16:13:45.722Z,70.60
2017-12-02T16:16:11.870Z,70.90
2017-12-02T16:18:42.650Z,71.90
2017-12-02T16:21:08.709Z,71.00
2017-12-02T16:23:34.874Z,70.50
2017-12-02T16:26:00.975Z,70.80
2017-12-02T16:28:27.778Z,70.50
2017-12-02T16:30:53.817Z,70.50
2017-12-02T16:33:19.889Z,69.40
2017-12-02T16:35:49.697Z,69.30
2017-12-02T16:38:15.738Z,69.40
2017-12-02T16:40:41.891Z,69.30
2017-12-02T16:43:07.934Z,70.00
2017-12-02T16:45:34.168Z,71.20
2017-12-02T16:48:00.250Z,70.90
2017-12-02T16:50:27.061Z,71.70
2017-12-02T16:52:53.125Z,71.60
2017-12-02T16:57:50.195Z,70.90
2017-12-02T17:00:16.237Z,69.80
2017-12-02T17:02:42.302Z,69.50
2017-12-02T17:05:08.410Z,71.50
2017-12-02T17:07:34.493Z,70.80
2017-12-02T17:10:01.321Z,70.00
2017-12-02T17:12:31.537Z,69.40
2017-12-02T17:14:58.051Z,69.10
2017-12-02T17:17:24.178Z,69.20
2017-12-02T17:19:50.982Z,68.70
2017-12-02T17:22:17.090Z,68.50
2017-12-02T17:24:43.913Z,69.10
2017-12-02T17:27:09.957Z,69.00
2017-12-02T17:29:38.135Z,68.10
2017-12-02T17:32:04.175Z,68.20
2017-12-02T17:34:30.241Z,69.20
2017-12-02T17:36:56.301Z,68.40
2017-12-02T17:39:23.162Z,68.90
2017-12-02T17:41:49.962Z,68.20
2017-12-02T17:44:16.012Z,68.00
2017-12-02T17:46:42.091Z,67.50
2017-12-02T17:49:08.641Z,68.00
2017-12-02T17:51:34.747Z,67.60
2017-12-02T17:54:00.788Z,68.40
2017-12-02T17:56:26.849Z,68.20
2017-12-02T17:58:53.689Z,67.30
2017-12-02T18:01:20.512Z,68.00
2017-12-02T18:03:46.612Z,67.90
2017-12-02T18:06:14.263Z,68.00
2017-12-02T18:08:40.453Z,67.90
2017-12-02T18:11:06.545Z,66.90
2017-12-02T18:13:32.742Z,67.30
2017-12-02T18:15:58.880Z,67.50
2017-12-02T18:18:25.165Z,67.30
2017-12-02T18:20:51.968Z,68.50
2017-12-02T18:23:18.053Z,68.40
2017-12-02T18:25:44.153Z,68.40
2017-12-02T18:28:10.260Z,68.40
2017-12-02T18:30:36.346Z,68.90
2017-12-02T18:33:02.445Z,69.00
2017-12-02T18:35:29.675Z,68.50
2017-12-02T18:37:55.878Z,68.50
2017-12-02T18:40:21.953Z,68.50
2017-12-02T18:42:48.746Z,68.50
2017-12-02T18:45:14.784Z,68.40
2017-12-02T18:47:40.883Z,70.20
2017-12-02T18:50:07.685Z,70.40
2017-12-02T18:52:33.751Z,70.30
2017-12-02T18:55:00.596Z,70.30
2017-12-02T18:57:26.725Z,70.30
2017-12-02T18:59:52.833Z,69.50
2017-12-02T19:02:18.918Z,70.00
2017-12-02T19:04:44.962Z,69.80
2017-12-02T19:07:11.817Z,70.50
2017-12-02T19:09:37.917Z,69.80
2017-12-02T19:12:04.045Z,68.70
2017-12-02T19:14:30.146Z,69.00
2017-12-02T19:16:57.061Z,68.70
2017-12-02T19:19:23.137Z,68.70
2017-12-02T19:21:49.981Z,68.80
2017-12-02T19:24:16.115Z,68.60
2017-12-02T19:26:42.175Z,68.80
2017-12-02T19:29:09.001Z,68.40
2017-12-02T19:31:35.074Z,68.50
2017-12-02T19:34:01.238Z,67.50
2017-12-02T19:36:27.304Z,67.60
2017-12-02T19:38:53.377Z,67.50
2017-12-02T19:41:20.150Z,67.50
2017-12-02T19:43:46.221Z,67.50
2017-12-02T19:46:12.367Z,67.20
2017-12-02T19:48:38.431Z,68.20
2017-12-02T19:51:05.615Z,67.50
2017-12-02T19:53:31.710Z,67.30
2017-12-02T19:55:57.804Z,68.40
2017-12-02T19:58:23.883Z,68.20
2017-12-02T20:00:49.947Z,67.70
2017-12-02T20:03:16.773Z,68.60
2017-12-02T20:05:42.869Z,68.50
2017-12-02T20:08:08.957Z,68.00
2017-12-02T20:10:35.090Z,67.50
2017-12-02T20:13:01.178Z,67.50
2017-12-02T20:15:27.223Z,68.50
2017-12-02T20:17:53.574Z,68.90
2017-12-02T20:20:19.826Z,68.40
2017-12-02T20:22:46.205Z,67.30
2017-12-02T20:25:13.193Z,66.50
2017-12-02T20:27:39.461Z,66.20
2017-12-02T20:30:05.745Z,66.80
2017-12-02T20:32:32.832Z,67.40
2017-12-02T20:35:00.926Z,68.00
2017-12-02T20:37:26.998Z,68.00
2017-12-02T20:39:53.094Z,67.90
2017-12-02T20:42:19.885Z,68.40
2017-12-02T20:44:45.929Z,68.20
2017-12-02T20:47:13.074Z,67.60
2017-12-02T20:49:39.160Z,66.80
2017-12-02T20:52:05.978Z,67.40
2017-12-02T20:54:32.026Z,67.30
2017-12-02T20:56:58.069Z,67.30
2017-12-02T20:59:24.459Z,67.50
2017-12-02T21:01:50.710Z,67.90
2017-12-02T21:04:17.733Z,67.70
2017-12-02T21:06:43.769Z,67.70
2017-12-02T21:09:09.843Z,68.70
2017-12-02T21:11:36.650Z,67.90
2017-12-02T21:14:02.683Z,68.00
2017-12-02T21:16:29.521Z,68.30
2017-12-02T21:18:55.545Z,68.00
2017-12-02T21:21:21.762Z,68.40
2017-12-02T21:23:47.988Z,68.50
2017-12-02T21:29:13.619Z,68.00
2017-12-02T21:31:40.732Z,68.10
2017-12-02T21:34:06.990Z,68.10
2017-12-02T21:36:34.093Z,67.20
2017-12-02T21:39:00.237Z,67.20
2017-12-02T21:41:27.293Z,66.40
2017-12-02T21:43:54.089Z,67.20
2017-12-02T21:46:21.095Z,67.10
2017-12-02T21:48:47.162Z,67.90
2017-12-02T21:51:14.161Z,67.90
2017-12-02T21:53:40.233Z,67.80
2017-12-02T21:56:06.550Z,68.00
2017-12-02T21:58:32.826Z,67.80
2017-12-02T22:00:59.303Z,68.50
2017-12-02T22:03:25.582Z,68.00
2017-12-02T22:05:51.836Z,67.60
2017-12-02T22:08:18.183Z,67.20
2017-12-02T22:10:44.422Z,66.80
2017-12-02T22:13:10.681Z,66.30
2017-12-02T22:15:37.784Z,66.10
2017-12-02T22:18:04.030Z,66.10
2017-12-02T22:20:30.322Z,66.70
2017-12-02T22:22:58.057Z,67.80
2017-12-02T22:25:24.284Z,67.80
2017-12-02T22:27:51.381Z,67.00
2017-12-02T22:30:17.731Z,66.90
2017-12-02T22:32:44.120Z,66.60
2017-12-02T22:35:10.477Z,66.30
2017-12-02T22:37:36.806Z,66.10
2017-12-02T22:40:03.119Z,66.10
2017-12-02T22:42:30.110Z,66.10
2017-12-02T22:44:56.404Z,66.10
2017-12-02T22:47:22.758Z,66.10
2017-12-02T22:49:49.733Z,65.70
2017-12-02T22:52:16.711Z,66.10
2017-12-02T22:54:42.950Z,66.60
2017-12-02T22:57:09.272Z,66.30
2017-12-02T22:59:36.272Z,66.10
2017-12-02T23:02:02.542Z,66.10
2017-12-02T23:04:28.789Z,66.10
2017-12-02T23:06:55.810Z,66.30
2017-12-02T23:09:22.055Z,66.10
2017-12-02T23:11:48.380Z,66.20
2017-12-02T23:14:14.639Z,67.30
2017-12-02T23:16:40.877Z,67.10
2017-12-02T23:19:07.173Z,67.10
2017-12-02T23:21:33.465Z,66.20
2017-12-02T23:23:59.734Z,66.80
2017-12-02T23:26:26.013Z,66.60
2017-12-02T23:28:52.297Z,66.70
2017-12-02T23:31:18.578Z,66.60
2017-12-02T23:33:45.600Z,66.40
2017-12-02T23:36:11.874Z,66.40
2017-12-02T23:38:38.877Z,66.90
2017-12-02T23:41:05.229Z,66.80
2017-12-02T23:43:31.445Z,66.90
2017-12-02T23:45:57.789Z,66.90
2017-12-02T23:48:24.076Z,67.00
2017-12-02T23:50:50.348Z,67.00
2017-12-02T23:53:17.349Z,66.90
2017-12-02T23:55:43.613Z,66.60
2017-12-02T23:58:09.907Z,66.70
